Time;durP1;ratioP1;P1;durP2;ratioP2;P2;SDS_P1;SDS_P2;PMS_P1;PMS_P2;Temp;Humidity;BMP_temperature;BMP_pressure;BME280_temperature;BME280_humidity;BME280_pressure;Samples;Min_cycle;Max_cycle;Signal;HPM_P1;HPM_P2
2023/05/01 00:02:14;;;;;;;17.03;15.23;;;9.10;1.00;;;;;;5069067;28;20442;-57
2023/05/01 00:04:40;;;;;;;19.43;15.23;;;9.10;1.00;;;;;;5065182;28;20183;-58
2023/05/01 00:07:05;;;;;;;15.57;14.00;;;9.10;1.00;;;;;;5062054;28;20215;-57
2023/05/01 00:09:32;;;;;;;19.23;14.87;;;9.00;1.00;;;;;;5073799;28;20227;-58
2023/05/01 00:11:57;;;;;;;20.37;14.70;;;9.10;1.00;;;;;;5071532;28;20188;-58
2023/05/01 00:14:23;;;;;;;18.10;15.40;;;9.00;1.00;;;;;;5069123;28;20445;-59
2023/05/01 00:16:48;;;;;;;17.20;14.90;;;9.00;1.00;;;;;;5061524;28;20215;-58
2023/05/01 00:19:17;;;;;;;17.83;14.10;;;9.00;1.00;;;;;;5073444;28;20187;-58
2023/05/01 00:21:45;;;;;;;15.90;13.07;;;9.00;1.00;;;;;;5068696;28;20181;-57
2023/05/01 00:24:11;;;;;;;17.90;15.50;;;8.90;1.00;;;;;;5074600;28;20453;-58
2023/05/01 00:26:36;;;;;;;16.70;14.87;;;8.90;1.00;;;;;;5069840;28;20493;-59
2023/05/01 00:29:02;;;;;;;19.10;15.87;;;8.90;1.00;;;;;;5071876;28;20203;-57
2023/05/01 00:31:27;;;;;;;19.40;15.20;;;8.90;1.00;;;;;;5059975;28;20187;-58
2023/05/01 00:33:53;;;;;;;17.40;14.87;;;8.80;1.00;;;;;;5069930;28;20183;-58
2023/05/01 00:36:19;;;;;;;16.97;15.27;;;8.80;1.00;;;;;;5065078;28;20748;-60
2023/05/01 00:38:45;;;;;;;16.83;14.47;;;8.80;1.00;;;;;;5069928;28;20203;-58
2023/05/01 00:41:11;;;;;;;16.87;15.10;;;8.80;1.00;;;;;;5061989;28;20450;-57
2023/05/01 00:43:36;;;;;;;21.13;15.37;;;8.70;1.00;;;;;;5068727;28;20474;-58
2023/05/01 00:46:02;;;;;;;17.33;14.73;;;8.70;1.00;;;;;;5065815;28;20187;-58
2023/05/01 00:48:28;;;;;;;18.10;15.93;;;8.70;1.00;;;;;;5064976;28;20196;-59
2023/05/01 00:50:55;;;;;;;19.13;15.53;;;8.70;1.00;;;;;;5055291;28;20196;-59
2023/05/01 00:53:23;;;;;;;20.70;17.60;;;8.70;1.00;;;;;;5058511;28;20211;-58
2023/05/01 00:55:49;;;;;;;19.10;16.90;;;8.70;1.00;;;;;;5052393;28;20486;-59
2023/05/01 00:58:17;;;;;;;24.40;18.37;;;8.60;1.00;;;;;;5054464;28;20781;-57
2023/05/01 01:00:43;;;;;;;24.37;18.73;;;8.60;1.00;;;;;;5055731;28;20449;-58
2023/05/01 01:03:10;;;;;;;30.30;24.20;;;8.60;1.00;;;;;;5056495;28;20450;-57
2023/05/01 01:05:41;;;;;;;30.70;23.70;;;8.50;1.00;;;;;;5054885;28;20486;-58
2023/05/01 01:08:18;;;;;;;32.00;25.97;;;8.40;1.00;;;;;;5069518;28;20446;-59
2023/05/01 01:11:00;;;;;;;31.97;25.23;;;8.40;1.00;;;;;;5071192;28;20436;-59
2023/05/01 01:13:35;;;;;;;34.90;25.43;;;8.40;1.00;;;;;;5063398;28;20954;-57
2023/05/01 01:16:28;;;;;;;28.67;23.23;;;8.30;1.00;;;;;;5056583;28;20450;-59
2023/05/01 01:19:06;;;;;;;29.20;26.17;;;8.20;1.00;;;;;;5063988;28;20498;-58
2023/05/01 01:21:39;;;;;;;34.73;28.20;;;8.20;1.00;;;;;;5067757;28;20449;-58
2023/05/01 01:24:30;;;;;;;30.27;25.53;;;8.30;1.00;;;;;;5076134;28;20441;-58
2023/05/01 01:27:19;;;;;;;35.73;27.97;;;8.30;1.00;;;;;;5078598;28;20442;-58
2023/05/01 01:30:39;;;;;;;36.00;30.03;;;8.30;1.00;;;;;;5056070;28;20449;-58
2023/05/01 01:33:10;;;;;;;36.03;27.47;;;8.20;1.00;;;;;;4983361;28;20595;-59
2023/05/01 01:35:41;;;;;;;39.87;30.90;;;8.30;1.00;;;;;;5045817;28;20538;-59
2023/05/01 01:38:16;;;;;;;35.77;27.97;;;8.10;1.00;;;;;;5063879;28;20480;-58
2023/05/01 01:40:56;;;;;;;33.97;27.13;;;8.10;1.00;;;;;;5062988;28;20535;-58
2023/05/01 01:43:23;;;;;;;27.80;24.87;;;8.00;1.00;;;;;;5061142;28;20480;-58
2023/05/01 01:45:58;;;;;;;30.40;27.10;;;8.00;1.00;;;;;;5063722;28;20443;-59
2023/05/01 01:48:29;;;;;;;32.50;25.73;;;8.00;1.00;;;;;;5066317;28;20456;-58
2023/05/01 01:50:58;;;;;;;31.43;26.20;;;8.00;1.00;;;;;;5066279;28;20446;-58
2023/05/01 01:53:27;;;;;;;33.87;27.77;;;8.00;1.00;;;;;;5067081;28;20446;-58
2023/05/01 01:55:55;;;;;;;27.03;24.13;;;8.00;1.00;;;;;;5064564;28;20488;-57
2023/05/01 01:58:25;;;;;;;33.73;25.70;;;8.00;1.00;;;;;;5075527;28;20470;-58
2023/05/01 02:00:52;;;;;;;28.47;25.40;;;8.00;1.00;;;;;;5066120;28;20438;-58
2023/05/01 02:03:20;;;;;;;29.67;26.40;;;7.90;1.00;;;;;;5068914;28;20454;-58
2023/05/01 02:05:48;;;;;;;29.80;26.00;;;7.80;1.00;;;;;;5064816;28;20449;-58
2023/05/01 02:08:15;;;;;;;35.93;25.90;;;7.80;1.00;;;;;;5059522;28;20454;-58
2023/05/01 02:10:42;;;;;;;30.00;24.97;;;7.80;1.00;;;;;;5066276;28;20446;-58
2023/05/01 02:13:09;;;;;;;31.83;26.10;;;7.80;1.00;;;;;;5066501;28;20540;-57
2023/05/01 02:15:37;;;;;;;29.80;26.40;;;7.80;1.00;;;;;;5062370;28;20450;-57
2023/05/01 02:18:04;;;;;;;35.43;26.93;;;7.80;1.00;;;;;;5055763;28;20492;-58
2023/05/01 02:20:30;;;;;;;39.73;29.60;;;7.80;1.00;;;;;;5064336;28;20529;-58
2023/05/01 02:22:57;;;;;;;36.03;28.50;;;7.80;1.00;;;;;;5065402;28;20431;-59
2023/05/01 02:25:23;;;;;;;38.07;31.47;;;7.80;1.00;;;;;;5064237;28;20529;-58
2023/05/01 02:27:56;;;;;;;33.87;28.20;;;7.70;1.00;;;;;;5063700;28;20476;-58
2023/05/01 02:30:22;;;;;;;41.63;32.53;;;7.60;1.00;;;;;;5069258;28;20438;-58
2023/05/01 02:32:47;;;;;;;38.83;32.43;;;7.60;1.00;;;;;;5066067;28;20446;-59
2023/05/01 02:35:13;;;;;;;36.10;31.87;;;7.60;1.00;;;;;;5067203;28;20649;-58
2023/05/01 02:37:39;;;;;;;40.30;31.60;;;7.60;1.00;;;;;;5058514;28;20863;-58
2023/05/01 02:40:06;;;;;;;37.93;32.00;;;7.50;1.00;;;;;;5062493;28;20187;-57
2023/05/01 02:42:34;;;;;;;40.60;33.27;;;7.50;1.00;;;;;;5063409;28;20646;-58
2023/05/01 02:45:03;;;;;;;36.17;32.27;;;7.40;1.00;;;;;;5065501;28;20444;-58
2023/05/01 02:47:32;;;;;;;38.50;33.23;;;7.40;1.00;;;;;;5065079;28;20870;-59
2023/05/01 02:49:59;;;;;;;42.77;34.27;;;7.40;1.00;;;;;;5053116;28;20438;-59
2023/05/01 02:52:25;;;;;;;37.30;32.43;;;7.40;1.00;;;;;;5054794;28;20500;-57
2023/05/01 02:54:51;;;;;;;40.33;32.50;;;7.40;1.00;;;;;;5054393;28;20468;-58
2023/05/01 02:57:19;;;;;;;38.43;34.20;;;7.30;1.00;;;;;;5050565;28;20482;-58
2023/05/01 02:59:45;;;;;;;42.17;34.67;;;7.30;1.00;;;;;;5052797;28;20592;-57
2023/05/01 03:02:10;;;;;;;43.90;34.00;;;7.20;1.00;;;;;;5052153;28;20455;-57
2023/05/01 03:04:36;;;;;;;38.80;31.90;;;7.20;1.00;;;;;;5053759;28;20209;-57
2023/05/01 03:07:03;;;;;;;41.17;31.93;;;7.20;1.00;;;;;;5054195;28;20463;-59
2023/05/01 03:09:30;;;;;;;42.30;31.47;;;7.20;1.00;;;;;;5053968;28;20195;-57
2023/05/01 03:11:56;;;;;;;38.50;33.70;;;7.20;1.00;;;;;;5053670;28;20457;-59
2023/05/01 03:14:22;;;;;;;37.40;32.13;;;7.10;1.00;;;;;;5054196;28;20449;-58
2023/05/01 03:16:48;;;;;;;41.43;33.10;;;7.10;1.00;;;;;;5054457;28;20453;-57
2023/05/01 03:19:14;;;;;;;38.83;31.67;;;7.10;1.00;;;;;;5054751;28;20454;-58
2023/05/01 03:21:40;;;;;;;39.90;33.20;;;7.10;1.00;;;;;;5056652;28;21933;-58
2023/05/01 03:24:06;;;;;;;39.63;32.47;;;7.10;1.00;;;;;;5077560;28;20192;-58
2023/05/01 03:26:31;;;;;;;36.73;29.67;;;7.00;1.00;;;;;;5062143;28;20195;-58
2023/05/01 03:28:57;;;;;;;33.17;27.90;;;7.10;1.00;;;;;;5062040;28;20534;-56
2023/05/01 03:31:23;;;;;;;33.50;28.27;;;7.10;1.00;;;;;;5065572;28;20452;-58
2023/05/01 03:33:49;;;;;;;42.27;31.50;;;7.00;1.00;;;;;;5064541;28;20197;-58
2023/05/01 03:36:15;;;;;;;41.33;30.57;;;7.00;1.00;;;;;;5063833;28;20191;-58
2023/05/01 03:38:41;;;;;;;33.57;28.07;;;7.00;1.00;;;;;;5060985;28;20225;-58
2023/05/01 03:41:07;;;;;;;36.00;28.13;;;7.00;1.00;;;;;;5063499;28;20528;-58
2023/05/01 03:43:33;;;;;;;30.13;26.27;;;7.00;1.00;;;;;;5061747;28;20450;-58
2023/05/01 03:45:58;;;;;;;33.47;26.57;;;6.90;1.00;;;;;;5061299;28;20462;-58
2023/05/01 03:48:24;;;;;;;29.90;23.90;;;6.90;1.00;;;;;;5064301;28;20202;-58
2023/05/01 03:50:51;;;;;;;32.70;23.10;;;6.90;1.00;;;;;;5072322;28;20274;-58
2023/05/01 03:53:16;;;;;;;26.00;22.53;;;6.90;1.00;;;;;;5060524;28;20453;-57
2023/05/01 03:55:42;;;;;;;31.40;23.03;;;7.00;1.00;;;;;;5064149;28;20486;-58
2023/05/01 03:58:09;;;;;;;24.80;21.60;;;7.00;1.00;;;;;;5064076;28;20212;-58
2023/05/01 04:00:36;;;;;;;23.33;20.70;;;7.00;1.00;;;;;;5059819;28;20541;-58
2023/05/01 04:03:02;;;;;;;26.40;22.63;;;7.10;1.00;;;;;;5062912;28;20450;-59
2023/05/01 04:05:27;;;;;;;29.50;22.63;;;7.10;1.00;;;;;;5068235;28;20481;-58
2023/05/01 04:07:53;;;;;;;28.80;23.47;;;7.20;1.00;;;;;;5059795;28;20485;-58
2023/05/01 04:10:18;;;;;;;26.93;23.13;;;7.10;1.00;;;;;;5063243;28;20279;-57
2023/05/01 04:12:44;;;;;;;31.10;21.93;;;7.10;1.00;;;;;;5065846;28;20184;-58
2023/05/01 04:15:10;;;;;;;26.97;21.30;;;7.10;1.00;;;;;;5065032;28;20196;-57
2023/05/01 04:17:36;;;;;;;25.70;20.83;;;7.10;1.00;;;;;;5062552;28;20659;-58
2023/05/01 04:20:05;;;;;;;26.00;21.30;;;7.20;1.00;;;;;;5065615;28;20445;-59
2023/05/01 04:22:30;;;;;;;28.90;20.70;;;7.20;1.00;;;;;;5069080;28;20179;-58
2023/05/01 04:24:56;;;;;;;23.70;20.10;;;7.40;1.00;;;;;;5069570;28;20545;-58
2023/05/01 04:27:22;;;;;;;23.77;18.77;;;7.40;1.00;;;;;;5070964;28;20545;-58
2023/05/01 04:29:48;;;;;;;22.03;19.10;;;7.50;1.00;;;;;;5063176;28;20192;-58
2023/05/01 04:32:13;;;;;;;19.87;17.43;;;7.50;1.00;;;;;;5067283;28;20261;-56
2023/05/01 04:34:39;;;;;;;28.83;20.90;;;7.60;1.00;;;;;;5065927;28;20195;-57
2023/05/01 04:37:07;;;;;;;25.43;20.80;;;7.60;1.00;;;;;;5071275;28;20671;-59
2023/05/01 04:39:33;;;;;;;20.80;18.40;;;7.70;1.00;;;;;;5060649;28;20330;-57
2023/05/01 04:41:59;;;;;;;24.53;19.60;;;7.70;1.00;;;;;;5070339;28;20909;-59
2023/05/01 04:44:25;;;;;;;23.43;18.33;;;7.70;1.00;;;;;;5067152;28;20176;-59
2023/05/01 04:46:50;;;;;;;26.13;19.33;;;7.80;1.00;;;;;;5058824;28;20284;-59
2023/05/01 04:49:16;;;;;;;27.20;19.63;;;7.80;1.00;;;;;;5051861;28;20188;-58
2023/05/01 04:51:42;;;;;;;23.30;18.97;;;7.90;1.00;;;;;;5060790;28;20548;-58
2023/05/01 04:54:07;;;;;;;24.60;19.33;;;8.00;1.00;;;;;;5075176;28;20729;-57
2023/05/01 04:56:33;;;;;;;24.50;20.77;;;8.10;1.00;;;;;;5068143;28;20227;-58
2023/05/01 04:58:58;;;;;;;23.27;20.67;;;8.10;1.00;;;;;;5068882;28;20305;-58
2023/05/01 05:01:24;;;;;;;24.50;20.20;;;8.20;1.00;;;;;;5062312;28;20200;-59
2023/05/01 05:03:50;;;;;;;21.80;18.80;;;8.20;1.00;;;;;;5060820;28;20227;-58
2023/05/01 05:06:15;;;;;;;27.30;20.17;;;8.30;1.00;;;;;;5054524;28;20185;-57
2023/05/01 05:08:41;;;;;;;23.77;20.70;;;8.40;1.00;;;;;;5058470;28;20192;-57
2023/05/01 05:11:07;;;;;;;24.60;21.27;;;8.50;1.00;;;;;;5057011;28;20689;-57
2023/05/01 05:13:33;;;;;;;20.73;18.37;;;8.60;1.00;;;;;;5053264;28;20544;-58
2023/05/01 05:15:58;;;;;;;25.77;20.27;;;8.60;1.00;;;;;;5055141;28;20439;-57
2023/05/01 05:18:24;;;;;;;24.40;19.30;;;8.70;1.00;;;;;;5053414;28;20212;-57
2023/05/01 05:20:49;;;;;;;24.63;20.83;;;8.80;1.00;;;;;;5064337;28;20187;-58
2023/05/01 05:23:15;;;;;;;33.63;19.90;;;8.80;1.00;;;;;;5069052;28;20210;-57
2023/05/01 05:25:41;;;;;;;26.00;19.93;;;9.00;1.00;;;;;;5062364;28;21252;-58
2023/05/01 05:28:06;;;;;;;22.10;17.93;;;9.00;1.00;;;;;;5060257;28;20191;-57
2023/05/01 05:30:32;;;;;;;23.07;19.07;;;9.10;1.00;;;;;;5065582;28;20200;-57
2023/05/01 05:32:57;;;;;;;24.63;19.67;;;9.30;1.00;;;;;;5061995;28;21318;-58
2023/05/01 05:35:23;;;;;;;21.83;19.43;;;9.20;1.00;;;;;;5067113;28;20183;-58
2023/05/01 05:37:49;;;;;;;24.50;19.80;;;9.20;1.00;;;;;;5062513;28;20215;-57
2023/05/01 05:40:15;;;;;;;23.50;20.00;;;9.40;1.00;;;;;;5062414;28;20196;-57
2023/05/01 05:42:40;;;;;;;25.37;20.67;;;9.60;1.00;;;;;;5066407;28;20446;-58
2023/05/01 05:45:07;;;;;;;25.30;20.83;;;9.70;1.00;;;;;;5063952;28;20183;-58
2023/05/01 05:47:32;;;;;;;26.57;21.20;;;9.90;1.00;;;;;;5062804;28;20284;-58
2023/05/01 05:49:58;;;;;;;23.93;20.70;;;10.00;1.00;;;;;;5064405;28;20493;-58
2023/05/01 05:52:23;;;;;;;26.43;20.90;;;10.10;1.00;;;;;;5066741;28;20184;-59
2023/05/01 05:54:50;;;;;;;22.30;19.90;;;10.20;1.00;;;;;;5063594;28;20275;-58
2023/05/01 05:57:15;;;;;;;24.73;22.10;;;10.40;1.00;;;;;;5064622;28;20228;-59
2023/05/01 05:59:41;;;;;;;27.00;21.33;;;10.60;1.00;;;;;;5066096;28;20442;-59
2023/05/01 06:02:07;;;;;;;22.70;19.30;;;10.60;1.00;;;;;;5063837;28;20198;-58
2023/05/01 06:04:32;;;;;;;25.60;22.53;;;10.70;1.00;;;;;;5067524;28;20183;-58
2023/05/01 06:06:59;;;;;;;26.60;22.37;;;10.80;1.00;;;;;;5061515;28;20180;-59
2023/05/01 06:09:25;;;;;;;22.60;19.93;;;11.00;1.00;;;;;;5053646;28;20188;-59
2023/05/01 06:11:50;;;;;;;25.73;22.90;;;11.30;1.00;;;;;;5064276;28;20507;-59
2023/05/01 06:14:16;;;;;;;25.80;21.50;;;11.50;99.90;;;;;;5078092;28;20944;-58
2023/05/01 06:16:42;;;;;;;25.27;20.47;;;11.60;99.90;;;;;;5064126;28;20542;-58
2023/05/01 06:19:10;;;;;;;23.07;19.67;;;11.90;99.90;;;;;;5061345;28;20222;-58
2023/05/01 06:21:36;;;;;;;23.80;19.40;;;12.10;99.90;;;;;;5066158;28;20241;-58
2023/05/01 06:24:02;;;;;;;22.20;19.80;;;12.30;99.90;;;;;;5059864;28;20451;-59
2023/05/01 06:26:27;;;;;;;21.30;18.60;;;12.40;99.90;;;;;;5060849;28;20708;-58
2023/05/01 06:28:53;;;;;;;22.60;17.87;;;12.50;99.90;;;;;;5065618;28;20230;-58
2023/05/01 06:31:19;;;;;;;18.03;16.13;;;12.60;99.90;;;;;;5062867;28;20200;-59
2023/05/01 06:33:45;;;;;;;20.33;16.97;;;12.60;99.90;;;;;;5065323;28;20611;-58
2023/05/01 06:36:11;;;;;;;19.73;15.50;;;12.70;99.90;;;;;;5061083;28;20192;-59
2023/05/01 06:38:36;;;;;;;20.33;14.93;;;12.80;99.90;;;;;;5063624;28;20218;-58
2023/05/01 06:41:04;;;;;;;19.87;15.33;;;12.80;99.90;;;;;;5064675;28;20263;-58
2023/05/01 06:43:30;;;;;;;19.23;14.00;;;12.90;99.90;;;;;;5058212;28;20606;-59
2023/05/01 06:45:56;;;;;;;20.07;13.43;;;13.00;99.90;;;;;;5065554;28;20446;-59
2023/05/01 06:48:22;;;;;;;15.60;12.87;;;13.10;99.90;;;;;;5067139;28;20707;-59
2023/05/01 06:50:47;;;;;;;16.30;12.77;;;13.20;99.90;;;;;;5069065;28;20600;-59
2023/05/01 06:53:13;;;;;;;14.70;12.13;;;13.30;99.90;;;;;;5061328;28;20192;-60
2023/05/01 06:55:39;;;;;;;13.03;11.70;;;13.40;99.90;;;;;;5064118;28;20787;-58
2023/05/01 06:58:05;;;;;;;15.50;11.17;;;13.70;99.90;;;;;;5064795;28;20204;-59
2023/05/01 07:00:33;;;;;;;13.57;10.57;;;13.90;99.90;;;;;;5059704;28;20317;-59
2023/05/01 07:02:58;;;;;;;13.13;10.63;;;14.00;99.90;;;;;;5060011;28;21002;-59
2023/05/01 07:05:24;;;;;;;14.37;11.33;;;14.10;99.90;;;;;;5062561;28;20453;-58
2023/05/01 07:07:50;;;;;;;13.40;10.17;;;14.30;99.90;;;;;;5059870;28;20530;-58
2023/05/01 07:10:15;;;;;;;14.93;10.17;;;14.50;99.90;;;;;;5062962;28;20184;-59
2023/05/01 07:12:41;;;;;;;13.63;10.60;;;14.70;99.90;;;;;;5062049;28;20198;-58
2023/05/01 07:15:07;;;;;;;11.10;10.00;;;14.90;99.90;;;;;;5078518;28;20214;-58
2023/05/01 07:17:33;;;;;;;12.33;9.67;;;15.10;99.90;;;;;;5063301;28;20269;-59
2023/05/01 07:20:00;;;;;;;11.97;10.00;;;15.20;99.90;;;;;;5065854;28;20443;-59
2023/05/01 07:22:25;;;;;;;12.20;10.20;;;15.40;99.90;;;;;;5064266;28;20454;-58
2023/05/01 07:24:51;;;;;;;11.80;9.50;;;15.70;99.90;;;;;;5061050;28;20962;-58
2023/05/01 07:27:17;;;;;;;9.83;8.77;;;15.70;99.90;;;;;;5061232;28;20428;-60
2023/05/01 07:29:43;;;;;;;13.07;9.47;;;15.70;99.90;;;;;;5057151;28;20196;-59
2023/05/01 07:32:09;;;;;;;9.60;7.80;;;15.70;99.90;;;;;;5060469;28;21022;-59
2023/05/01 07:34:34;;;;;;;8.67;7.83;;;15.90;99.90;;;;;;5063932;28;20531;-58
2023/05/01 07:37:00;;;;;;;10.23;9.30;;;15.90;99.90;;;;;;5057901;28;20863;-59
2023/05/01 07:39:26;;;;;;;10.00;9.00;;;15.90;99.90;;;;;;5061863;28;20262;-59
2023/05/01 07:41:51;;;;;;;9.43;8.43;;;16.00;99.90;;;;;;5062783;28;20184;-59
2023/05/01 07:44:17;;;;;;;12.77;9.43;;;16.10;99.90;;;;;;5063213;28;20255;-60
2023/05/01 07:46:43;;;;;;;10.80;9.00;;;16.00;99.90;;;;;;5065190;28;20225;-58
2023/05/01 07:49:08;;;;;;;9.50;8.60;;;15.90;99.90;;;;;;5062848;28;20499;-59
2023/05/01 07:51:34;;;;;;;10.37;9.20;;;15.80;99.90;;;;;;5064050;28;20184;-60
2023/05/01 07:54:03;;;;;;;9.73;7.90;;;15.80;99.90;;;;;;5068350;28;20600;-59
2023/05/01 07:56:32;;;;;;;8.73;7.90;;;15.80;99.90;;;;;;5063975;28;20289;-59
2023/05/01 07:58:57;;;;;;;11.23;7.90;;;15.80;99.90;;;;;;5065196;28;20469;-59
2023/05/01 08:01:23;;;;;;;11.03;7.63;;;16.00;99.90;;;;;;5064583;28;20445;-59
2023/05/01 08:03:49;;;;;;;9.37;7.30;;;16.20;99.90;;;;;;5065700;28;20184;-57
2023/05/01 08:06:14;;;;;;;9.30;7.40;;;16.50;99.90;;;;;;5067120;28;20226;-58
2023/05/01 08:08:40;;;;;;;7.30;6.10;;;16.60;99.90;;;;;;5068031;28;20187;-59
2023/05/01 08:11:06;;;;;;;8.27;5.83;;;16.70;99.90;;;;;;5066477;28;20684;-59
2023/05/01 08:13:31;;;;;;;8.57;6.40;;;16.80;99.90;;;;;;5069959;28;20184;-59
2023/05/01 08:16:03;;;;;;;10.50;5.43;;;16.90;99.90;;;;;;5068567;28;20180;-58
2023/05/01 08:18:29;;;;;;;7.60;6.03;;;17.00;99.90;;;;;;5068504;28;20207;-59
2023/05/01 08:20:55;;;;;;;8.17;5.90;;;17.20;99.90;;;;;;5069191;28;20544;-59
2023/05/01 08:23:23;;;;;;;7.47;5.83;;;17.30;99.90;;;;;;5067918;28;20537;-59
2023/05/01 08:25:50;;;;;;;9.23;6.33;;;17.10;99.90;;;;;;5069050;28;20584;-59
2023/05/01 08:28:19;;;;;;;7.60;5.63;;;17.10;99.90;;;;;;5065146;28;20453;-59
2023/05/01 08:30:45;;;;;;;8.10;5.70;;;17.10;99.90;;;;;;5067934;28;20457;-58
2023/05/01 08:33:10;;;;;;;6.23;5.63;;;17.00;99.90;;;;;;5069491;28;20450;-58
2023/05/01 08:35:36;;;;;;;7.50;5.73;;;17.30;99.90;;;;;;5065328;28;20211;-58
2023/05/01 08:38:02;;;;;;;7.40;5.57;;;17.50;99.90;;;;;;5066237;28;20302;-58
2023/05/01 08:40:32;;;;;;;6.67;6.00;;;17.80;99.90;;;;;;5065410;28;20184;-58
2023/05/01 08:43:00;;;;;;;8.40;5.90;;;17.90;99.90;;;;;;5070261;28;20180;-60
2023/05/01 08:45:28;;;;;;;6.70;5.90;;;18.00;99.90;;;;;;5064545;28;20938;-59
2023/05/01 08:47:54;;;;;;;6.47;5.80;;;18.00;99.90;;;;;;5071485;28;20450;-57
2023/05/01 08:50:21;;;;;;;7.77;6.00;;;18.10;99.90;;;;;;5071324;28;20612;-58
2023/05/01 08:52:50;;;;;;;7.87;6.17;;;18.20;99.90;;;;;;5069809;28;20520;-58
2023/05/01 08:55:15;;;;;;;6.30;5.70;;;18.10;99.90;;;;;;5079038;28;20472;-59
2023/05/01 08:57:45;;;;;;;10.20;8.00;;;18.30;99.90;;;;;;5070273;28;20480;-57
2023/05/01 09:00:19;;;;;;;7.40;5.00;;;18.60;99.90;;;;;;5072239;28;20190;-57
2023/05/01 09:02:47;;;;;;;8.13;6.23;;;18.90;99.90;;;;;;5069443;28;20891;-58
2023/05/01 09:05:17;;;;;;;6.57;5.93;;;19.00;99.90;;;;;;5071284;28;20443;-58
2023/05/01 09:07:45;;;;;;;9.90;6.33;;;19.20;99.90;;;;;;5071040;28;20819;-59
2023/05/01 09:10:12;;;;;;;7.33;6.10;;;19.20;99.90;;;;;;5071067;28;20523;-61
2023/05/01 09:12:40;;;;;;;7.20;5.77;;;19.50;99.90;;;;;;5071145;28;20537;-59
2023/05/01 09:15:06;;;;;;;7.87;6.00;;;19.50;99.90;;;;;;5068072;28;20445;-57
2023/05/01 09:17:34;;;;;;;6.53;5.97;;;19.40;99.90;;;;;;5058939;28;20468;-58
2023/05/01 09:20:04;;;;;;;8.10;6.00;;;19.50;99.90;;;;;;5071769;28;20523;-58
2023/05/01 09:22:31;;;;;;;7.93;6.33;;;19.50;99.90;;;;;;5065871;28;20446;-58
2023/05/01 09:24:58;;;;;;;6.23;5.63;;;19.70;99.90;;;;;;5069646;28;20712;-58
2023/05/01 09:27:25;;;;;;;6.87;6.17;;;19.80;99.90;;;;;;5069301;28;20538;-59
2023/05/01 09:29:51;;;;;;;6.40;5.63;;;19.50;99.90;;;;;;5062177;28;20491;-59
2023/05/01 09:32:23;;;;;;;8.10;5.97;;;19.50;99.90;;;;;;5062675;28;20524;-59
2023/05/01 09:34:50;;;;;;;6.90;6.30;;;19.50;99.90;;;;;;5066918;28;20196;-58
2023/05/01 09:37:26;;;;;;;7.67;6.43;;;19.50;99.90;;;;;;5062525;28;20579;-57
2023/05/01 09:40:06;;;;;;;11.93;6.73;;;19.40;99.90;;;;;;5064166;28;20490;-58
2023/05/01 09:42:34;;;;;;;7.17;6.17;;;19.30;99.90;;;;;;5063356;28;20471;-58
2023/05/01 09:45:02;;;;;;;7.13;6.43;;;19.40;99.90;;;;;;5066939;28;20549;-59
2023/05/01 09:47:28;;;;;;;6.83;6.13;;;19.50;99.90;;;;;;5062831;28;20481;-59
2023/05/01 09:49:56;;;;;;;10.93;6.40;;;19.70;99.90;;;;;;5064227;28;20477;-59
2023/05/01 09:52:25;;;;;;;6.67;5.57;;;19.70;99.90;;;;;;5068549;28;20452;-58
2023/05/01 09:55:17;;;;;;;8.77;6.60;;;19.60;99.90;;;;;;5066754;28;20449;-59
2023/05/01 09:57:44;;;;;;;8.10;5.87;;;19.60;99.90;;;;;;5065297;28;20484;-58
2023/05/01 10:00:11;;;;;;;6.43;5.77;;;19.80;99.90;;;;;;5062330;28;20442;-57
2023/05/01 10:02:37;;;;;;;6.80;5.97;;;19.90;99.90;;;;;;5064819;28;20442;-59
2023/05/01 10:05:04;;;;;;;6.93;6.00;;;19.80;99.90;;;;;;5065064;28;20500;-59
2023/05/01 10:07:30;;;;;;;8.13;5.93;;;19.80;99.90;;;;;;5068006;28;20454;-60
2023/05/01 10:09:55;;;;;;;6.53;5.83;;;19.90;99.90;;;;;;5061568;28;20829;-58
2023/05/01 10:12:26;;;;;;;8.53;5.10;;;20.00;99.90;;;;;;5065910;28;20279;-58
2023/05/01 10:14:53;;;;;;;6.20;5.60;;;20.10;99.90;;;;;;5065828;28;20219;-58
2023/05/01 10:17:19;;;;;;;6.77;6.07;;;20.10;99.90;;;;;;5066904;28;20809;-59
2023/05/01 10:19:46;;;;;;;6.90;5.40;;;20.30;99.90;;;;;;5069904;28;20461;-58
2023/05/01 10:22:12;;;;;;;7.10;5.47;;;20.40;99.90;;;;;;5066324;28;20446;-59
2023/05/01 10:24:39;;;;;;;7.07;4.90;;;20.20;99.90;;;;;;5075602;28;20457;-59
2023/05/01 10:27:06;;;;;;;6.60;5.00;;;20.30;99.90;;;;;;5063298;28;21009;-59
2023/05/01 10:29:35;;;;;;;7.77;4.50;;;20.50;99.90;;;;;;5068093;28;20453;-59
2023/05/01 10:32:03;;;;;;;7.70;5.20;;;20.40;99.90;;;;;;5068822;28;20499;-58
2023/05/01 10:34:31;;;;;;;5.73;5.20;;;20.20;99.90;;;;;;5075872;28;20432;-59
2023/05/01 10:37:01;;;;;;;5.43;4.90;;;20.20;99.90;;;;;;5083425;28;20523;-58
2023/05/01 10:39:35;;;;;;;6.00;5.17;;;20.50;99.90;;;;;;5063989;28;20453;-58
2023/05/01 10:42:05;;;;;;;5.10;4.60;;;20.50;99.90;;;;;;5067189;28;20600;-58
2023/05/01 10:44:31;;;;;;;4.70;4.03;;;20.30;99.90;;;;;;5064774;28;20469;-57
2023/05/01 10:46:57;;;;;;;5.90;4.27;;;19.80;99.90;;;;;;5076570;28;20541;-57
2023/05/01 10:49:23;;;;;;;7.37;5.53;;;20.00;99.90;;;;;;5075448;28;20520;-59
2023/05/01 10:51:58;;;;;;;6.17;5.57;;;20.30;99.90;;;;;;5080117;28;20471;-58
2023/05/01 10:54:28;;;;;;;6.53;4.27;;;20.80;99.90;;;;;;5078274;28;20193;-58
2023/05/01 10:56:56;;;;;;;6.23;4.67;;;21.10;99.90;;;;;;5068555;28;20946;-58
2023/05/01 10:59:21;;;;;;;5.60;4.83;;;21.20;99.90;;;;;;5066639;28;20450;-59
2023/05/01 11:01:50;;;;;;;6.57;4.70;;;21.30;99.90;;;;;;5070385;28;20590;-57
2023/05/01 11:04:18;;;;;;;7.60;5.17;;;21.20;99.90;;;;;;5069583;28;20545;-58
2023/05/01 11:07:09;;;;;;;4.87;4.30;;;21.20;99.90;;;;;;5069987;28;20415;-58
2023/05/01 11:09:47;;;;;;;6.23;4.67;;;21.30;99.90;;;;;;5074582;28;20830;-58
2023/05/01 11:12:32;;;;;;;5.03;4.60;;;21.50;99.90;;;;;;5082845;28;20419;-58
2023/05/01 11:15:06;;;;;;;4.93;4.50;;;21.50;99.90;;;;;;5077694;28;20831;-57
2023/05/01 11:17:41;;;;;;;5.57;4.93;;;21.50;99.90;;;;;;5066479;28;20451;-59
2023/05/01 11:20:11;;;;;;;5.67;4.60;;;21.30;99.90;;;;;;5064024;28;20472;-58
2023/05/01 11:22:39;;;;;;;6.30;4.80;;;21.20;99.90;;;;;;5078818;28;20415;-58
2023/05/01 11:25:18;;;;;;;8.33;4.20;;;21.20;99.90;;;;;;5068554;28;20499;-58
2023/05/01 11:27:58;;;;;;;5.90;4.87;;;21.40;99.90;;;;;;5069018;28;20784;-57
2023/05/01 11:30:24;;;;;;;4.50;4.00;;;21.50;99.90;;;;;;5078863;28;20427;-59
2023/05/01 11:32:51;;;;;;;4.77;4.07;;;21.60;99.90;;;;;;5079368;28;20437;-59
2023/05/01 11:35:25;;;;;;;4.60;4.03;;;21.80;99.90;;;;;;5082686;28;20501;-59
2023/05/01 11:37:51;;;;;;;4.93;3.93;;;22.10;99.90;;;;;;5074004;28;20555;-59
2023/05/01 11:40:20;;;;;;;6.60;5.10;;;22.10;99.90;;;;;;5083263;28;20948;-59
2023/05/01 11:42:46;;;;;;;6.37;4.77;;;21.90;99.90;;;;;;5072067;28;20313;-58
2023/05/01 11:45:12;;;;;;;4.80;4.20;;;21.70;99.90;;;;;;5071297;28;20440;-59
2023/05/01 11:47:38;;;;;;;4.87;4.47;;;21.50;99.90;;;;;;5077972;28;20190;-58
2023/05/01 11:50:06;;;;;;;5.30;4.80;;;21.50;99.90;;;;;;5072010;28;20442;-59
2023/05/01 11:52:54;;;;;;;7.60;5.27;;;21.40;99.90;;;;;;5077920;28;20840;-58
2023/05/01 11:55:20;;;;;;;7.10;4.80;;;21.50;99.90;;;;;;5082411;28;20484;-58
2023/05/01 11:57:48;;;;;;;5.37;4.90;;;21.40;99.90;;;;;;5082723;28;20474;-59
2023/05/01 12:00:14;;;;;;;7.50;5.10;;;21.20;99.90;;;;;;5084169;28;20947;-58
2023/05/01 12:02:56;;;;;;;5.10;4.40;;;21.20;99.90;;;;;;5074386;28;20981;-58
2023/05/01 12:05:23;;;;;;;6.20;5.13;;;21.20;99.90;;;;;;5076951;28;20860;-58
2023/05/01 12:07:49;;;;;;;4.77;4.20;;;21.20;99.90;;;;;;5068467;28;20444;-57
2023/05/01 12:10:16;;;;;;;5.67;4.20;;;21.30;99.90;;;;;;5079698;28;20595;-58
2023/05/01 12:12:41;;;;;;;6.30;4.30;;;21.50;99.90;;;;;;5077771;28;20192;-58
2023/05/01 12:15:08;;;;;;;5.00;4.50;;;21.60;99.90;;;;;;5084037;28;20486;-58
2023/05/01 12:17:37;;;;;;;5.70;4.40;;;21.80;99.90;;;;;;5072218;28;20739;-57
2023/05/01 12:20:03;;;;;;;5.07;4.57;;;22.10;99.90;;;;;;5077180;28;20502;-56
2023/05/01 12:22:29;;;;;;;4.90;3.87;;;22.40;99.90;;;;;;5080466;28;20935;-58
2023/05/01 12:24:55;;;;;;;6.40;4.13;;;22.30;99.90;;;;;;5078561;28;20539;-58
2023/05/01 12:27:21;;;;;;;4.40;3.70;;;22.10;99.90;;;;;;5077741;28;20179;-59
2023/05/01 12:29:47;;;;;;;6.73;3.90;;;22.00;99.90;;;;;;5086978;28;20430;-57
2023/05/01 12:32:15;;;;;;;5.93;3.30;;;22.00;99.90;;;;;;5084134;28;20453;-57
2023/05/01 12:34:41;;;;;;;4.40;4.03;;;22.00;99.90;;;;;;5086922;28;20538;-57
2023/05/01 12:37:08;;;;;;;9.87;5.60;;;22.00;99.90;;;;;;5076011;28;20453;-59
2023/05/01 12:39:43;;;;;;;6.10;3.97;;;22.00;99.90;;;;;;5073152;28;20969;-58
2023/05/01 12:42:13;;;;;;;4.37;3.40;;;22.10;99.90;;;;;;5078663;28;20532;-59
2023/05/01 12:44:39;;;;;;;3.80;3.43;;;22.20;99.90;;;;;;5085252;28;20487;-58
2023/05/01 12:47:06;;;;;;;4.57;3.40;;;22.30;99.90;;;;;;5087985;28;20442;-58